createdAt,value
2022-10-23T00:01:33.071Z,11.40
2022-10-23T00:04:06.938Z,11.40
2022-10-23T00:06:35.249Z,11.30
2022-10-23T00:09:02.362Z,11.30
2022-10-23T00:11:30.907Z,11.30
2022-10-23T00:14:01.177Z,11.30
2022-10-23T00:16:29.016Z,11.30
2022-10-23T00:18:55.813Z,11.30
2022-10-23T00:21:23.606Z,11.30
2022-10-23T00:23:50.266Z,11.30
2022-10-23T00:26:17.150Z,11.30
2022-10-23T00:28:45.450Z,11.30
2022-10-23T00:31:12.859Z,11.30
2022-10-23T00:33:39.732Z,11.30
2022-10-23T00:36:08.384Z,11.40
2022-10-23T00:38:35.616Z,11.40
2022-10-23T00:41:02.729Z,11.40
2022-10-23T00:43:31.072Z,11.40
2022-10-23T00:45:57.890Z,11.40
2022-10-23T00:48:26.500Z,11.40
2022-10-23T00:50:53.623Z,11.40
2022-10-23T00:53:21.449Z,11.40
2022-10-23T00:55:49.945Z,11.40
2022-10-23T00:58:19.058Z,11.40
2022-10-23T01:00:53.432Z,11.40
2022-10-23T01:03:22.683Z,11.30
2022-10-23T01:05:54.628Z,11.30
2022-10-23T01:08:47.022Z,11.30
2022-10-23T01:11:20.630Z,11.30
2022-10-23T01:14:10.848Z,11.30
2022-10-23T01:16:40.722Z,11.20
2022-10-23T01:19:21.860Z,11.30
2022-10-23T01:22:14.717Z,11.20
2022-10-23T01:25:04.749Z,11.20
2022-10-23T01:27:39.461Z,11.20
2022-10-23T01:30:12.861Z,11.20
2022-10-23T01:32:48.298Z,11.20
2022-10-23T01:35:21.008Z,11.20
2022-10-23T01:38:14.578Z,11.20
2022-10-23T01:41:04.537Z,11.10
2022-10-23T01:44:04.233Z,11.10
2022-10-23T01:46:32.620Z,11.10
2022-10-23T01:49:01.209Z,11.10
2022-10-23T01:51:30.324Z,11.10
2022-10-23T01:54:00.755Z,11.10
2022-10-23T01:56:32.097Z,11.10
2022-10-23T01:59:04.762Z,11.10
2022-10-23T02:01:34.564Z,11.10
2022-10-23T02:04:04.236Z,11.10
2022-10-23T02:06:31.113Z,11.10
2022-10-23T02:08:58.174Z,11.10
2022-10-23T02:11:24.943Z,11.10
2022-10-23T02:13:59.196Z,11.10
2022-10-23T02:16:37.881Z,11.10
2022-10-23T02:19:48.501Z,11.10
2022-10-23T02:22:22.946Z,11.10
2022-10-23T02:25:08.550Z,11.00
2022-10-23T02:27:48.134Z,11.00
2022-10-23T02:30:18.049Z,11.00
2022-10-23T02:32:55.962Z,11.00
2022-10-23T02:35:24.679Z,11.00
2022-10-23T02:38:00.152Z,11.00
2022-10-23T02:40:41.939Z,11.00
2022-10-23T02:43:27.775Z,11.00
2022-10-23T02:46:27.757Z,11.00
2022-10-23T02:49:17.734Z,11.00
2022-10-23T02:52:13.516Z,11.00
2022-10-23T02:55:03.265Z,11.00
2022-10-23T02:57:38.164Z,11.00
2022-10-23T03:00:07.780Z,11.00
2022-10-23T03:02:41.859Z,11.00
2022-10-23T03:05:12.268Z,11.00
2022-10-23T03:07:40.751Z,11.00
2022-10-23T03:10:08.734Z,11.00
2022-10-23T03:12:35.691Z,11.00
2022-10-23T03:15:02.538Z,11.00
2022-10-23T03:17:29.387Z,11.10
2022-10-23T03:19:56.082Z,11.10
2022-10-23T03:22:23.086Z,11.10
2022-10-23T03:24:49.917Z,11.10
2022-10-23T03:27:16.697Z,11.20
2022-10-23T03:29:43.418Z,11.20
2022-10-23T03:32:10.082Z,11.20
2022-10-23T03:34:36.761Z,11.20
2022-10-23T03:37:03.512Z,11.20
2022-10-23T03:39:30.270Z,11.20
2022-10-23T03:41:56.936Z,11.20
2022-10-23T03:44:23.730Z,11.20
2022-10-23T03:46:50.417Z,11.20
2022-10-23T03:49:17.154Z,11.20
2022-10-23T03:51:51.887Z,11.20
2022-10-23T03:54:27.233Z,11.20
2022-10-23T03:56:57.384Z,11.10
2022-10-23T03:59:24.581Z,11.20
2022-10-23T04:01:51.409Z,11.10
2022-10-23T04:04:18.497Z,11.10
2022-10-23T04:06:45.338Z,11.10
2022-10-23T04:11:39.859Z,11.10
2022-10-23T04:14:06.563Z,11.10
2022-10-23T04:20:14.170Z,11.20
2022-10-23T04:22:41.120Z,11.30
2022-10-23T04:25:08.430Z,11.40
2022-10-23T04:27:35.211Z,11.40
2022-10-23T04:30:03.671Z,11.50
2022-10-23T04:32:31.331Z,11.50
2022-10-23T04:34:58.007Z,11.60
2022-10-23T04:37:24.926Z,11.70
2022-10-23T04:39:51.609Z,11.80
2022-10-23T04:42:18.363Z,11.80
2022-10-23T04:44:45.173Z,11.80
2022-10-23T04:47:11.825Z,11.80
2022-10-23T04:49:38.493Z,11.80
2022-10-23T04:52:05.224Z,11.80
2022-10-23T04:54:41.207Z,11.70
2022-10-23T04:57:08.202Z,11.80
2022-10-23T04:59:35.005Z,11.80
2022-10-23T05:02:01.674Z,11.80
2022-10-23T05:04:28.372Z,11.80
2022-10-23T05:06:55.061Z,11.80
2022-10-23T05:09:22.419Z,11.80
2022-10-23T05:11:49.412Z,11.80
2022-10-23T05:14:20.549Z,11.80
2022-10-23T05:17:00.687Z,11.80
2022-10-23T05:19:39.813Z,11.80
2022-10-23T05:22:07.030Z,11.80
2022-10-23T05:24:33.869Z,11.90
2022-10-23T05:27:00.559Z,11.90
2022-10-23T05:29:27.260Z,12.00
2022-10-23T05:31:58.796Z,12.00
2022-10-23T05:34:27.646Z,12.00
2022-10-23T05:36:54.805Z,12.00
2022-10-23T05:39:21.614Z,12.00
2022-10-23T05:41:48.279Z,12.00
2022-10-23T05:44:15.122Z,12.00
2022-10-23T05:46:42.629Z,12.00
2022-10-23T05:49:09.660Z,12.00
2022-10-23T05:51:37.773Z,12.00
2022-10-23T05:54:07.744Z,12.00
2022-10-23T05:56:41.543Z,12.10
2022-10-23T05:59:08.240Z,12.10
2022-10-23T06:01:35.149Z,12.10
2022-10-23T06:04:02.386Z,12.10
2022-10-23T06:06:29.147Z,12.10
2022-10-23T06:08:55.889Z,12.10
2022-10-23T06:11:22.964Z,12.10
2022-10-23T06:13:49.903Z,12.10
2022-10-23T06:16:19.421Z,12.10
2022-10-23T06:18:46.740Z,12.10
2022-10-23T06:21:14.704Z,12.10
2022-10-23T06:23:42.614Z,12.10
2022-10-23T06:26:12.441Z,12.10
2022-10-23T06:28:39.389Z,12.10
2022-10-23T06:31:10.993Z,12.10
2022-10-23T06:33:37.956Z,12.10
2022-10-23T06:36:05.679Z,12.20
2022-10-23T06:38:37.489Z,12.10
2022-10-23T06:41:08.714Z,12.20
2022-10-23T06:43:35.405Z,12.20
2022-10-23T06:46:03.771Z,12.20
2022-10-23T06:48:31.874Z,12.20
2022-10-23T06:50:59.200Z,12.30
2022-10-23T06:53:25.991Z,12.30
2022-10-23T06:55:55.342Z,12.30
2022-10-23T06:58:23.405Z,12.40
2022-10-23T07:00:50.121Z,12.40
2022-10-23T07:03:20.420Z,12.40
2022-10-23T07:05:49.949Z,12.50
2022-10-23T07:08:16.872Z,12.50
2022-10-23T07:10:43.515Z,12.60
2022-10-23T07:13:11.603Z,12.60
2022-10-23T07:15:39.406Z,12.70
2022-10-23T07:18:06.601Z,12.80
2022-10-23T07:20:33.646Z,12.90
2022-10-23T07:23:00.293Z,12.90
2022-10-23T07:25:27.449Z,13.00
2022-10-23T07:27:55.770Z,13.10
2022-10-23T07:30:22.728Z,13.20
2022-10-23T07:32:49.530Z,13.20
2022-10-23T07:35:17.223Z,13.30
2022-10-23T07:37:44.269Z,13.40
2022-10-23T07:40:11.706Z,13.50
2022-10-23T07:42:39.002Z,13.50
2022-10-23T07:45:07.458Z,13.60
2022-10-23T07:47:35.810Z,13.60
2022-10-23T07:50:02.804Z,13.70
2022-10-23T07:52:32.092Z,13.70
2022-10-23T07:55:02.061Z,13.80
2022-10-23T07:57:28.861Z,13.90
2022-10-23T07:59:55.569Z,13.90
2022-10-23T08:02:22.358Z,14.00
2022-10-23T08:04:49.918Z,14.10
2022-10-23T08:07:16.710Z,14.10
2022-10-23T08:09:43.453Z,14.10
2022-10-23T08:12:10.484Z,14.20
2022-10-23T08:14:37.162Z,14.20
2022-10-23T08:17:05.082Z,14.20
2022-10-23T08:19:32.340Z,14.30
2022-10-23T08:21:59.027Z,14.40
2022-10-23T08:24:25.741Z,14.40
2022-10-23T08:26:52.403Z,14.40
2022-10-23T08:29:19.128Z,14.50
2022-10-23T08:31:46.331Z,14.50
2022-10-23T08:34:14.056Z,14.50
2022-10-23T08:36:40.832Z,14.50
2022-10-23T08:39:07.713Z,14.50
2022-10-23T08:41:41.280Z,14.60
2022-10-23T08:44:26.415Z,14.60
2022-10-23T08:47:15.633Z,14.70
2022-10-23T08:50:03.338Z,14.80
2022-10-23T08:52:55.012Z,14.80
2022-10-23T08:55:45.080Z,14.90
2022-10-23T08:58:48.864Z,15.00
2022-10-23T09:01:42.933Z,15.10
2022-10-23T09:04:14.476Z,15.20
2022-10-23T09:06:48.091Z,15.30
2022-10-23T09:09:25.217Z,15.40
2022-10-23T09:11:58.056Z,15.40
2022-10-23T09:14:46.061Z,15.50
2022-10-23T09:17:29.445Z,15.50
2022-10-23T09:20:18.997Z,15.50
2022-10-23T09:22:46.821Z,15.40
2022-10-23T09:25:26.629Z,15.50
2022-10-23T09:27:58.150Z,15.50
2022-10-23T09:30:35.394Z,15.40
2022-10-23T09:33:23.725Z,15.40
2022-10-23T09:35:56.500Z,15.40
2022-10-23T09:38:38.299Z,15.30
2022-10-23T09:41:25.645Z,15.30
2022-10-23T09:44:07.956Z,15.40
2022-10-23T09:46:44.786Z,15.30
2022-10-23T09:49:37.796Z,15.40
2022-10-23T09:52:06.119Z,15.40
2022-10-23T09:54:38.637Z,15.60
2022-10-23T09:57:22.225Z,15.70
2022-10-23T09:59:59.497Z,15.80
2022-10-23T10:02:34.844Z,15.90
2022-10-23T10:05:23.633Z,16.00
2022-10-23T10:08:15.771Z,16.00
2022-10-23T10:10:51.069Z,16.10
2022-10-23T10:13:56.546Z,16.20
2022-10-23T10:16:36.892Z,16.30
2022-10-23T10:19:17.092Z,16.40
2022-10-23T10:22:28.918Z,16.40
2022-10-23T10:25:40.306Z,16.40
2022-10-23T10:28:15.926Z,16.50
2022-10-23T10:31:13.512Z,16.50
2022-10-23T10:33:43.465Z,16.60
2022-10-23T10:36:34.618Z,16.60
2022-10-23T10:39:03.955Z,16.70
2022-10-23T10:41:46.961Z,16.80
2022-10-23T10:44:32.266Z,16.90
2022-10-23T10:47:15.941Z,17.00
2022-10-23T10:50:02.914Z,17.10
2022-10-23T10:52:49.161Z,17.10
2022-10-23T10:55:44.804Z,17.20
2022-10-23T10:58:30.215Z,17.30
2022-10-23T11:01:00.584Z,17.40
2022-10-23T11:03:43.412Z,17.50
2022-10-23T11:06:18.589Z,17.70
2022-10-23T11:08:57.740Z,17.80
2022-10-23T11:11:28.406Z,17.90
2022-10-23T11:14:05.229Z,17.90
2022-10-23T11:16:37.419Z,17.90
2022-10-23T11:19:20.137Z,18.10
2022-10-23T11:21:51.065Z,18.20
2022-10-23T11:24:32.827Z,18.30
2022-10-23T11:27:14.835Z,18.40
2022-10-23T11:29:57.180Z,18.50
2022-10-23T11:32:35.447Z,18.70
2022-10-23T11:35:32.039Z,18.90
2022-10-23T11:38:12.613Z,19.00
2022-10-23T11:40:45.928Z,19.20
2022-10-23T11:43:12.914Z,19.30
2022-10-23T11:45:41.458Z,19.40
2022-10-23T11:48:14.305Z,19.40
2022-10-23T11:50:44.195Z,19.50
2022-10-23T11:53:32.219Z,19.60
2022-10-23T11:56:11.437Z,19.70
2022-10-23T11:58:58.856Z,19.70
2022-10-23T12:01:39.652Z,19.70
2022-10-23T12:04:16.038Z,19.60
2022-10-23T12:06:49.952Z,19.60
2022-10-23T12:09:23.007Z,19.60
2022-10-23T12:12:21.886Z,19.60
2022-10-23T12:14:50.621Z,19.60
2022-10-23T12:17:23.630Z,19.50
2022-10-23T12:20:09.994Z,19.50
2022-10-23T12:22:47.490Z,19.60
2022-10-23T12:25:43.222Z,19.60
2022-10-23T12:28:28.667Z,19.70
2022-10-23T12:31:23.706Z,19.80
2022-10-23T12:33:53.331Z,19.90
2022-10-23T12:36:20.056Z,20.00
2022-10-23T12:38:48.555Z,20.10
2022-10-23T12:41:29.631Z,20.20
2022-10-23T12:44:02.310Z,20.30
2022-10-23T12:46:41.987Z,20.30
2022-10-23T12:49:35.656Z,20.40
2022-10-23T12:52:15.478Z,20.50
2022-10-23T12:54:42.445Z,20.50
2022-10-23T12:57:22.340Z,20.50
2022-10-23T12:59:51.528Z,20.60
2022-10-23T13:02:30.190Z,20.50
2022-10-23T13:05:00.891Z,20.50
2022-10-23T13:07:30.300Z,20.50
2022-10-23T13:09:58.661Z,20.50
2022-10-23T13:12:29.074Z,20.50
2022-10-23T13:15:01.276Z,20.50
2022-10-23T13:17:44.118Z,20.60
2022-10-23T13:20:20.910Z,20.60
2022-10-23T13:22:56.403Z,20.60
2022-10-23T13:25:31.746Z,20.60
2022-10-23T13:28:18.673Z,20.60
2022-10-23T13:30:48.559Z,20.60
2022-10-23T13:33:21.113Z,20.60
2022-10-23T13:35:58.760Z,20.70
2022-10-23T13:38:30.509Z,20.70
2022-10-23T13:40:59.905Z,20.60
2022-10-23T13:43:27.640Z,20.60
2022-10-23T13:45:54.644Z,20.60
2022-10-23T13:48:21.560Z,20.50
2022-10-23T13:50:49.776Z,20.50
2022-10-23T13:53:16.788Z,20.50
2022-10-23T13:55:45.989Z,20.50
2022-10-23T13:58:15.528Z,20.50
2022-10-23T14:00:50.803Z,20.50
2022-10-23T14:03:18.592Z,20.40
2022-10-23T14:05:45.262Z,20.40
2022-10-23T14:08:12.140Z,20.30
2022-10-23T14:10:38.833Z,20.30
2022-10-23T14:13:05.582Z,20.40
2022-10-23T14:15:32.291Z,20.50
2022-10-23T14:18:00.169Z,20.50
2022-10-23T14:20:28.806Z,20.60
2022-10-23T14:22:55.700Z,20.60
2022-10-23T14:25:23.023Z,20.70
2022-10-23T14:27:49.745Z,20.90
2022-10-23T14:30:16.859Z,21.10
2022-10-23T14:32:45.351Z,21.10
2022-10-23T14:35:12.438Z,20.90
2022-10-23T14:37:39.509Z,20.70
2022-10-23T14:40:06.975Z,20.60
2022-10-23T14:42:34.412Z,20.40
2022-10-23T14:45:02.741Z,20.30
2022-10-23T14:47:31.605Z,20.10
2022-10-23T14:49:58.449Z,20.00
2022-10-23T14:52:25.193Z,19.90
2022-10-23T14:54:53.664Z,19.90
2022-10-23T14:57:22.285Z,19.80
2022-10-23T14:59:49.629Z,19.60
2022-10-23T15:02:17.307Z,19.50
2022-10-23T15:04:44.192Z,19.40
2022-10-23T15:07:11.224Z,19.20
2022-10-23T15:09:39.753Z,19.00
2022-10-23T15:12:07.353Z,19.00
2022-10-23T15:14:34.787Z,18.90
2022-10-23T15:17:01.726Z,18.80
2022-10-23T15:19:28.517Z,18.70
2022-10-23T15:21:55.367Z,18.60
2022-10-23T15:24:22.122Z,18.50
2022-10-23T15:26:49.887Z,18.40
2022-10-23T15:29:17.362Z,18.40
2022-10-23T15:31:57.267Z,18.30
2022-10-23T15:34:29.200Z,18.20
2022-10-23T15:36:57.543Z,18.10
2022-10-23T15:39:28.513Z,18.00
2022-10-23T15:41:56.976Z,18.00
2022-10-23T15:44:26.081Z,17.90
2022-10-23T15:46:53.055Z,17.80
2022-10-23T15:49:20.266Z,17.70
2022-10-23T15:51:48.092Z,17.70
2022-10-23T15:54:18.447Z,17.60
2022-10-23T15:56:46.711Z,17.60
2022-10-23T15:59:13.996Z,17.50
2022-10-23T16:01:41.410Z,17.50
2022-10-23T16:04:08.893Z,17.50
2022-10-23T16:06:35.682Z,17.50
2022-10-23T16:09:04.451Z,17.50
2022-10-23T16:11:35.853Z,17.50
2022-10-23T16:14:03.669Z,17.50
2022-10-23T16:16:31.636Z,17.50
2022-10-23T16:19:03.484Z,17.50
2022-10-23T16:21:33.846Z,17.50
2022-10-23T16:24:02.497Z,17.50
2022-10-23T16:26:30.418Z,17.50
2022-10-23T16:29:02.876Z,17.40
2022-10-23T16:31:29.887Z,17.40
2022-10-23T16:34:01.343Z,17.40
2022-10-23T16:40:09.999Z,17.40
2022-10-23T16:42:36.848Z,17.30
2022-10-23T16:45:04.206Z,17.30
2022-10-23T16:47:31.581Z,17.20
2022-10-23T16:49:58.352Z,17.20
2022-10-23T16:52:25.959Z,17.20
2022-10-23T16:54:52.716Z,17.10
2022-10-23T16:57:19.687Z,17.10
2022-10-23T16:59:46.409Z,17.00
2022-10-23T17:02:13.451Z,17.00
2022-10-23T17:05:08.645Z,17.00
2022-10-23T17:07:37.084Z,16.90
2022-10-23T17:10:04.647Z,16.90
2022-10-23T17:12:31.319Z,16.90
2022-10-23T17:14:58.201Z,16.80
2022-10-23T17:17:24.855Z,16.80
2022-10-23T17:19:51.508Z,16.80
2022-10-23T17:22:18.372Z,16.70
2022-10-23T17:24:47.615Z,16.70
2022-10-23T17:27:18.598Z,16.60
2022-10-23T17:29:45.374Z,16.60
2022-10-23T17:32:12.173Z,16.60
2022-10-23T17:34:38.884Z,16.60
2022-10-23T17:37:05.580Z,16.60
2022-10-23T17:39:32.378Z,16.70
2022-10-23T17:41:59.160Z,16.70
2022-10-23T17:44:26.234Z,16.80
2022-10-23T17:46:54.300Z,16.80
2022-10-23T17:49:21.820Z,16.80
2022-10-23T17:55:39.952Z,16.90
2022-10-23T17:58:08.334Z,16.90
2022-10-23T18:00:38.603Z,16.90
2022-10-23T18:03:05.528Z,17.00
2022-10-23T18:05:33.222Z,17.00
2022-10-23T18:08:00.338Z,17.00
2022-10-23T18:10:27.793Z,17.00
2022-10-23T18:12:54.506Z,17.00
2022-10-23T18:15:21.246Z,17.00
2022-10-23T18:17:47.925Z,17.00
2022-10-23T18:20:15.696Z,17.00
2022-10-23T18:22:42.663Z,17.10
2022-10-23T18:25:10.402Z,17.10
2022-10-23T18:27:39.603Z,17.10
2022-10-23T18:30:07.232Z,17.10
2022-10-23T18:32:34.028Z,17.10
2022-10-23T18:35:00.809Z,17.10
2022-10-23T18:37:31.829Z,17.10
2022-10-23T18:40:00.278Z,17.10
2022-10-23T18:42:26.928Z,17.00
2022-10-23T18:44:54.665Z,17.00
2022-10-23T18:47:21.411Z,17.00
2022-10-23T18:49:48.175Z,17.00
2022-10-23T18:52:14.806Z,16.90
2022-10-23T18:54:42.544Z,16.90
2022-10-23T18:57:09.350Z,16.80
2022-10-23T18:59:36.048Z,16.70
2022-10-23T19:02:02.864Z,16.70
2022-10-23T19:04:32.792Z,16.70
2022-10-23T19:07:03.505Z,16.70
2022-10-23T19:09:30.154Z,16.60
2022-10-23T19:12:00.410Z,16.50
2022-10-23T19:14:37.724Z,16.40
2022-10-23T19:17:11.835Z,16.30
2022-10-23T19:19:47.822Z,16.30
2022-10-23T19:22:16.074Z,16.30
2022-10-23T19:24:52.945Z,16.40
2022-10-23T19:27:19.886Z,16.40
2022-10-23T19:29:49.675Z,16.40
2022-10-23T19:32:16.548Z,16.40
2022-10-23T19:34:44.046Z,16.40
2022-10-23T19:37:11.108Z,16.40
2022-10-23T19:39:38.443Z,16.40
2022-10-23T19:42:05.464Z,16.30
2022-10-23T19:44:32.157Z,16.20
2022-10-23T19:46:58.845Z,16.00
2022-10-23T19:49:25.707Z,15.80
2022-10-23T19:51:52.419Z,15.70
2022-10-23T19:54:20.561Z,15.60
2022-10-23T19:56:47.916Z,15.40
2022-10-23T19:59:15.648Z,15.30
2022-10-23T20:01:45.143Z,15.20
2022-10-23T20:04:16.294Z,15.10
2022-10-23T20:06:42.965Z,15.00
2022-10-23T20:09:09.868Z,14.90
2022-10-23T20:11:38.979Z,14.80
2022-10-23T20:14:06.486Z,14.70
2022-10-23T20:16:35.857Z,14.60
2022-10-23T20:19:04.583Z,14.50
2022-10-23T20:21:31.319Z,14.50
2022-10-23T20:23:59.029Z,14.40
2022-10-23T20:26:25.788Z,14.40
2022-10-23T20:28:55.680Z,14.30
2022-10-23T20:31:24.312Z,14.30
2022-10-23T20:33:52.080Z,14.30
2022-10-23T20:36:41.128Z,14.20
2022-10-23T20:39:13.159Z,14.20
2022-10-23T20:41:41.708Z,14.20
2022-10-23T20:44:11.656Z,14.30
2022-10-23T20:46:38.396Z,14.20
2022-10-23T20:49:05.160Z,14.20
2022-10-23T20:51:31.998Z,14.10
2022-10-23T20:53:58.659Z,14.10
2022-10-23T20:56:31.254Z,14.00
2022-10-23T20:59:13.341Z,14.10
2022-10-23T21:01:49.529Z,14.10
2022-10-23T21:04:18.090Z,14.20
2022-10-23T21:07:04.777Z,14.30
2022-10-23T21:09:31.585Z,14.30
2022-10-23T21:11:58.306Z,14.40
2022-10-23T21:14:25.025Z,14.40
2022-10-23T21:16:51.769Z,14.50
2022-10-23T21:19:18.476Z,14.50
2022-10-23T21:21:45.173Z,14.50
2022-10-23T21:24:16.368Z,14.50
2022-10-23T21:26:44.721Z,14.60
2022-10-23T21:29:19.997Z,14.60
2022-10-23T21:31:55.284Z,14.60
2022-10-23T21:34:23.152Z,14.70
2022-10-23T21:39:36.600Z,14.70
2022-10-23T21:42:03.642Z,14.70
2022-10-23T21:44:30.342Z,14.70
2022-10-23T21:46:57.058Z,14.80
2022-10-23T21:49:23.717Z,14.80
2022-10-23T21:51:50.401Z,14.80
2022-10-23T21:54:17.105Z,14.80
2022-10-23T21:56:49.492Z,14.80
2022-10-23T21:59:19.197Z,14.70
2022-10-23T22:01:47.291Z,14.60
2022-10-23T22:04:17.157Z,14.60
2022-10-23T22:06:44.976Z,14.40
2022-10-23T22:09:19.598Z,14.40
2022-10-23T22:11:48.071Z,14.40
2022-10-23T22:14:14.773Z,14.30
2022-10-23T22:16:42.175Z,14.30
2022-10-23T22:19:11.682Z,14.40
2022-10-23T22:21:39.128Z,14.40
2022-10-23T22:24:06.371Z,14.50
2022-10-23T22:26:38.236Z,14.50
2022-10-23T22:29:08.124Z,14.50
2022-10-23T22:31:35.987Z,14.50
2022-10-23T22:34:13.316Z,14.50
2022-10-23T22:36:51.690Z,14.50
2022-10-23T22:39:19.008Z,14.50
2022-10-23T22:41:47.416Z,14.60
2022-10-23T22:44:14.877Z,14.60
2022-10-23T22:46:42.499Z,14.60
2022-10-23T22:49:09.501Z,14.60
2022-10-23T22:51:37.777Z,14.60
2022-10-23T22:54:04.616Z,14.60
2022-10-23T22:56:31.520Z,14.60
2022-10-23T22:58:58.397Z,14.60
2022-10-23T23:01:35.950Z,14.60
2022-10-23T23:04:13.863Z,14.60
2022-10-23T23:06:49.557Z,14.60
2022-10-23T23:09:18.081Z,14.60
2022-10-23T23:11:51.584Z,14.50
2022-10-23T23:14:23.149Z,14.40
2022-10-23T23:16:51.995Z,14.40
2022-10-23T23:19:22.555Z,14.40
2022-10-23T23:21:49.669Z,14.40
2022-10-23T23:24:16.393Z,14.40
2022-10-23T23:26:43.082Z,14.50
2022-10-23T23:29:09.848Z,14.50
2022-10-23T23:31:36.518Z,14.50
2022-10-23T23:34:03.226Z,14.50
2022-10-23T23:36:29.931Z,14.60
2022-10-23T23:38:57.926Z,14.70
2022-10-23T23:41:27.066Z,14.80
2022-10-23T23:43:55.206Z,14.80
2022-10-23T23:46:22.111Z,14.90
2022-10-23T23:48:49.833Z,15.00
2022-10-23T23:51:22.466Z,15.00
2022-10-23T23:53:50.261Z,15.10
2022-10-23T23:56:17.607Z,15.10
2022-10-23T23:58:44.749Z,15.00
